createdAt,value
2023-05-09T06:14:32.525Z,4.53
2023-05-09T06:17:00.622Z,4.50
2023-05-09T06:19:27.516Z,4.60
2023-05-09T06:21:54.366Z,4.82
2023-05-09T06:24:34.491Z,4.25
2023-05-09T06:27:04.337Z,4.68
2023-05-09T06:29:31.204Z,4.35
2023-05-09T06:31:58.073Z,4.40
2023-05-09T06:34:28.057Z,4.35
2023-05-09T06:36:54.881Z,3.83
2023-05-09T06:39:21.669Z,4.65
2023-05-09T06:41:48.438Z,4.78
2023-05-09T06:44:24.012Z,4.30
2023-05-09T06:46:50.954Z,4.78
2023-05-09T06:49:17.695Z,4.78
2023-05-09T06:51:44.575Z,4.70
2023-05-09T06:54:11.394Z,4.47
2023-05-09T06:56:38.230Z,5.10
2023-05-09T06:59:05.158Z,4.75
2023-05-09T07:01:32.009Z,4.20
2023-05-09T07:03:59.690Z,4.43
2023-05-09T07:06:26.578Z,4.97
2023-05-09T07:08:54.575Z,4.50
2023-05-09T07:11:21.495Z,4.82
2023-05-09T07:13:48.317Z,4.68
2023-05-09T07:16:15.937Z,4.32
2023-05-09T07:18:42.808Z,5.30
2023-05-09T07:21:09.596Z,4.38
2023-05-09T07:23:36.492Z,5.07
2023-05-09T07:26:03.313Z,5.25
2023-05-09T07:28:30.242Z,4.93
2023-05-09T07:30:57.331Z,4.47
2023-05-09T07:33:27.082Z,5.05
2023-05-09T07:35:54.083Z,4.95
2023-05-09T07:38:20.859Z,5.13
2023-05-09T07:40:47.683Z,5.15
2023-05-09T07:43:14.496Z,5.35
2023-05-09T07:45:41.632Z,4.57
2023-05-09T07:48:09.493Z,5.15
2023-05-09T07:50:36.332Z,4.32
2023-05-09T07:53:05.257Z,5.68
2023-05-09T07:55:32.051Z,5.40
2023-05-09T07:57:58.876Z,4.55
2023-05-09T08:00:25.829Z,4.50
2023-05-09T08:02:54.351Z,4.95
2023-05-09T08:05:21.359Z,5.40
2023-05-09T08:07:48.172Z,4.90
2023-05-09T08:10:15.011Z,4.80
2023-05-09T08:12:41.927Z,4.93
2023-05-09T08:15:09.116Z,4.53
2023-05-09T08:17:36.022Z,5.03
2023-05-09T08:20:07.341Z,4.88
2023-05-09T08:22:34.211Z,4.50
2023-05-09T08:25:03.855Z,5.53
2023-05-09T08:27:30.683Z,4.63
2023-05-09T08:29:57.567Z,4.72
2023-05-09T08:32:24.367Z,3.95
2023-05-09T08:34:51.142Z,4.28
2023-05-09T08:37:18.116Z,4.18
2023-05-09T08:39:44.956Z,4.65
2023-05-09T08:42:15.871Z,4.47
2023-05-09T08:44:42.793Z,4.45
2023-05-09T08:47:13.113Z,4.53
2023-05-09T08:49:41.004Z,3.90
2023-05-09T08:52:08.762Z,4.88
2023-05-09T08:54:36.774Z,4.75
2023-05-09T08:57:03.813Z,4.78
2023-05-09T08:59:35.145Z,4.80
2023-05-09T09:02:07.607Z,4.68
2023-05-09T09:04:34.604Z,4.57
2023-05-09T09:07:03.637Z,4.22
2023-05-09T09:09:30.667Z,4.32
2023-05-09T09:11:58.050Z,4.45
2023-05-09T09:14:27.657Z,4.32
2023-05-09T09:16:57.223Z,4.93
2023-05-09T09:19:30.044Z,5.53
2023-05-09T09:22:00.041Z,5.50
2023-05-09T09:24:29.511Z,5.07
2023-05-09T09:26:56.548Z,5.25
2023-05-09T09:29:23.742Z,5.25
2023-05-09T09:31:57.025Z,5.60
2023-05-09T09:34:24.344Z,5.43
2023-05-09T09:36:51.238Z,5.00
2023-05-09T09:39:18.072Z,3.83
2023-05-09T09:41:45.196Z,3.83
2023-05-09T09:44:20.220Z,4.32
2023-05-09T09:46:55.501Z,4.93
2023-05-09T09:49:24.305Z,6.28
2023-05-09T09:51:55.695Z,5.35
2023-05-09T09:54:25.583Z,4.07
2023-05-09T09:56:56.659Z,5.40
2023-05-09T09:59:25.842Z,5.75
2023-05-09T10:02:07.102Z,5.68
2023-05-09T10:04:38.525Z,5.63
2023-05-09T10:07:07.383Z,5.32
2023-05-09T10:09:35.528Z,5.93
2023-05-09T10:12:06.791Z,4.53
2023-05-09T10:14:35.882Z,4.28
2023-05-09T10:17:06.991Z,3.80
2023-05-09T10:19:35.794Z,3.50
2023-05-09T10:22:10.350Z,3.67
2023-05-09T10:25:02.081Z,4.10
2023-05-09T10:27:32.191Z,3.65
2023-05-09T10:30:04.988Z,4.25
2023-05-09T10:33:07.976Z,5.47
2023-05-09T10:38:07.972Z,5.55
2023-05-09T10:40:35.257Z,5.10
2023-05-09T10:43:02.047Z,5.43
2023-05-09T10:45:29.356Z,4.50
2023-05-09T10:47:57.192Z,5.40
2023-05-09T10:50:24.773Z,4.50
2023-05-09T10:53:17.094Z,5.68
2023-05-09T10:55:47.355Z,5.35
2023-05-09T10:58:29.226Z,5.55
2023-05-09T11:00:59.296Z,4.87
2023-05-09T11:03:27.635Z,5.70
2023-05-09T11:05:58.857Z,3.88
2023-05-09T11:08:26.880Z,4.82
2023-05-09T11:10:55.610Z,5.05
2023-05-09T11:13:24.761Z,5.65
2023-05-09T11:15:52.573Z,6.05
2023-05-09T11:18:19.525Z,6.05
2023-05-09T11:20:51.079Z,5.00
2023-05-09T11:23:26.970Z,4.63
2023-05-09T11:26:04.084Z,4.53
2023-05-09T11:28:33.541Z,5.45
2023-05-09T11:31:12.142Z,6.03
2023-05-09T11:33:40.109Z,4.85
2023-05-09T11:36:33.549Z,4.40
2023-05-09T11:39:03.093Z,6.63
2023-05-09T11:41:30.683Z,5.75
2023-05-09T11:44:00.288Z,5.10
2023-05-09T11:46:27.775Z,5.18
2023-05-09T11:48:54.757Z,4.88
2023-05-09T11:51:21.963Z,4.88
2023-05-09T11:53:54.149Z,5.38
2023-05-09T11:56:23.071Z,5.22
2023-05-09T11:58:52.897Z,4.97
2023-05-09T12:01:20.151Z,5.60
2023-05-09T12:03:49.006Z,5.05
2023-05-09T12:06:17.493Z,5.38
2023-05-09T12:08:45.780Z,5.60
2023-05-09T15:27:18.375Z,6.18
2023-05-09T15:29:46.613Z,5.63
2023-05-09T15:32:13.424Z,5.95
2023-05-09T15:34:42.819Z,6.03
2023-05-09T15:37:09.707Z,5.30
2023-05-09T15:39:37.713Z,5.55
2023-05-09T15:42:05.585Z,5.90
2023-05-09T15:44:32.432Z,6.22
2023-05-09T15:46:59.302Z,5.13
2023-05-09T15:49:26.222Z,6.57
2023-05-09T15:51:53.506Z,6.60
2023-05-09T15:54:20.350Z,5.82
2023-05-09T15:56:48.271Z,6.53
2023-05-09T15:59:15.129Z,5.47
2023-05-09T16:01:42.231Z,6.57
2023-05-09T16:04:09.283Z,6.13
2023-05-09T16:06:36.982Z,6.85
2023-05-09T16:09:04.742Z,6.85
2023-05-09T16:11:31.641Z,6.07
2023-05-09T16:13:58.646Z,5.72
2023-05-09T16:16:25.902Z,5.85
2023-05-09T16:18:52.661Z,6.22
2023-05-09T16:21:19.670Z,6.25
2023-05-09T16:23:46.455Z,6.80
2023-05-09T16:26:13.800Z,5.70
2023-05-09T16:28:40.569Z,5.03
2023-05-09T16:31:08.519Z,5.63
2023-05-09T16:33:35.334Z,6.50
2023-05-09T16:36:06.301Z,6.35
2023-05-09T16:38:33.158Z,5.40
2023-05-09T16:40:59.947Z,5.85
2023-05-09T16:43:26.824Z,5.80
2023-05-09T16:45:56.466Z,6.13
2023-05-09T16:48:23.236Z,5.97
2023-05-09T16:50:53.571Z,6.03
2023-05-09T16:53:22.810Z,5.18
2023-05-09T16:55:50.079Z,6.60
2023-05-09T16:58:17.001Z,6.28
2023-05-09T17:00:43.824Z,5.78
2023-05-09T17:03:10.727Z,6.50
2023-05-09T17:05:37.532Z,5.18
2023-05-09T17:08:04.376Z,4.43
2023-05-09T17:10:31.871Z,4.88
2023-05-09T17:12:58.893Z,4.72
2023-05-09T17:15:25.856Z,3.95
2023-05-09T17:17:53.173Z,4.15
2023-05-09T17:20:19.975Z,5.03
2023-05-09T17:22:47.988Z,4.90
2023-05-09T17:25:14.861Z,5.43
2023-05-09T17:27:42.664Z,5.15
2023-05-09T17:30:09.978Z,4.80
2023-05-09T17:32:36.803Z,5.57
2023-05-09T17:35:06.946Z,5.93
2023-05-09T17:37:33.746Z,5.65
2023-05-09T17:40:00.695Z,5.78
2023-05-09T17:42:27.588Z,5.25
2023-05-09T17:44:54.937Z,6.13
2023-05-09T17:47:22.001Z,6.30
2023-05-09T17:49:48.746Z,6.13
2023-05-09T17:52:15.548Z,6.30
2023-05-09T17:54:43.668Z,6.57
2023-05-09T17:57:10.502Z,6.00
2023-05-09T17:59:40.549Z,5.93
2023-05-09T18:02:10.654Z,5.88
2023-05-09T18:04:37.461Z,5.72
2023-05-09T18:07:04.219Z,5.00
2023-05-09T18:09:31.262Z,5.35
2023-05-09T18:12:00.751Z,5.45
2023-05-09T18:14:28.455Z,3.85
2023-05-09T18:16:55.258Z,5.15
2023-05-09T18:19:22.057Z,4.72
2023-05-09T18:21:48.867Z,4.70
2023-05-09T18:24:17.018Z,4.70
2023-05-09T18:26:44.030Z,4.18
2023-05-09T18:29:10.859Z,4.43
2023-05-09T18:31:39.823Z,4.55
2023-05-09T18:34:07.099Z,4.65
2023-05-09T18:36:33.917Z,4.57
2023-05-09T18:39:00.739Z,4.65
2023-05-09T18:41:31.860Z,4.38
2023-05-09T18:43:58.773Z,4.30
2023-05-09T18:46:30.859Z,4.50
2023-05-09T18:48:57.691Z,4.28
2023-05-09T18:51:25.269Z,4.45
2023-05-09T18:53:52.446Z,4.35
2023-05-09T18:56:22.421Z,5.18
2023-05-09T18:58:52.394Z,4.90
2023-05-09T19:01:19.558Z,4.45
2023-05-09T19:03:47.555Z,4.78
2023-05-09T19:06:14.897Z,4.65
2023-05-09T19:08:43.180Z,5.35
2023-05-09T19:11:11.686Z,4.70
2023-05-09T19:13:40.820Z,5.45
2023-05-09T19:16:08.287Z,5.13
2023-05-09T19:18:35.159Z,5.03
2023-05-09T19:21:01.978Z,4.65
2023-05-09T19:23:28.954Z,4.55
2023-05-09T19:25:56.424Z,4.25
2023-05-09T19:28:23.261Z,4.28
2023-05-09T19:30:50.421Z,4.53
2023-05-09T19:33:17.811Z,5.03
2023-05-09T19:35:44.892Z,5.00
2023-05-09T19:38:12.107Z,4.20
2023-05-09T19:40:41.744Z,4.38
2023-05-09T19:43:08.534Z,4.90
2023-05-09T19:45:35.342Z,4.18
2023-05-09T19:48:02.172Z,5.72
2023-05-09T19:50:31.785Z,5.07
2023-05-09T19:52:58.743Z,5.38
2023-05-09T19:55:25.683Z,5.50
